Terminal Aerodrome Forecast
Issued by NWS

Home | Current Version | Previous Version | Text Only | Print | Product List | Glossary On
Versions: 1 2 3 4 5 6 7 8 9 10 11 12 13 14 15 16 17 18 19 20 21 22 23 24 25 26
000
FTAK31 PAFG 290559 AAB
TAFAOR
TAF AMD
PAOR 290559Z 2906/3006 VRB05KT P6SM VCTS FEW060CB SCT080 SCT130
     FM290900 31005KT P6SM SCT070 BKN100
     FM292100 10010G17KT P6SM VCTS SCT050CB BKN100=

USA.gov is the U.S. government's official web portal to all federal, state and local government web resources and services.